createdAt,value
2018-03-28T00:00:45.734Z,35.99
2018-03-28T00:01:45.768Z,35.93
2018-03-28T00:02:45.709Z,36.03
2018-03-28T00:03:45.680Z,36
2018-03-28T00:04:45.695Z,35.92
2018-03-28T00:05:45.960Z,35.97
2018-03-28T00:06:45.720Z,35.99
2018-03-28T00:07:45.700Z,35.92
2018-03-28T00:08:45.713Z,36
2018-03-28T00:09:45.745Z,36.01
2018-03-28T00:10:45.862Z,35.93
2018-03-28T00:11:45.770Z,36.02
2018-03-28T00:12:45.722Z,35.94
2018-03-28T00:13:45.693Z,35.97
2018-03-28T00:14:45.733Z,35.98
2018-03-28T00:15:45.777Z,35.98
2018-03-28T00:16:45.698Z,35.98
2018-03-28T00:17:45.713Z,35.98
2018-03-28T00:18:45.673Z,35.94
2018-03-28T00:19:45.727Z,35.92
2018-03-28T00:20:45.721Z,35.96
2018-03-28T00:21:45.795Z,36.03
2018-03-28T00:22:45.699Z,35.92
2018-03-28T00:23:45.704Z,35.94
2018-03-28T00:24:45.741Z,35.9
2018-03-28T00:25:45.701Z,35.96
2018-03-28T00:26:45.738Z,35.97
2018-03-28T00:27:45.749Z,36.07
2018-03-28T00:28:45.710Z,35.99
2018-03-28T00:29:45.693Z,36.03
2018-03-28T00:30:45.729Z,36.05
2018-03-28T00:31:45.718Z,36.02
2018-03-28T00:32:45.707Z,36
2018-03-28T00:33:45.729Z,36.05
2018-03-28T00:34:45.711Z,36.01
2018-03-28T00:35:45.735Z,36.08
2018-03-28T00:36:45.774Z,36.04
2018-03-28T00:37:45.690Z,35.95
2018-03-28T00:38:45.688Z,36.01
2018-03-28T00:39:45.691Z,36.03
2018-03-28T00:40:45.711Z,35.98
2018-03-28T00:41:45.731Z,36.03
2018-03-28T00:42:45.760Z,36.04
2018-03-28T00:43:45.700Z,35.96
2018-03-28T00:44:45.691Z,36.12
2018-03-28T00:45:45.679Z,36.04
2018-03-28T00:46:45.727Z,35.99
2018-03-28T00:47:45.697Z,36
2018-03-28T00:48:45.684Z,36.07
2018-03-28T00:49:45.685Z,36.04
2018-03-28T00:50:45.698Z,36.18
2018-03-28T00:51:45.706Z,36.07
2018-03-28T00:52:45.703Z,36.04
2018-03-28T00:53:45.693Z,36.07
2018-03-28T00:54:45.679Z,36.08
2018-03-28T00:55:45.691Z,36
2018-03-28T00:56:45.720Z,36.09
2018-03-28T00:57:45.718Z,36.07
2018-03-28T00:58:45.680Z,35.97
2018-03-28T00:59:45.682Z,36.12
2018-03-28T01:00:45.721Z,36.09
2018-03-28T01:01:45.683Z,36.03
2018-03-28T01:02:45.729Z,36.12
2018-03-28T01:03:45.674Z,36.1
2018-03-28T01:04:45.687Z,36.04
2018-03-28T01:05:45.705Z,36.02
2018-03-28T01:06:45.709Z,36.12
2018-03-28T01:07:45.707Z,35.99
2018-03-28T01:08:45.676Z,36.05
2018-03-28T01:09:45.705Z,36.16
2018-03-28T01:10:45.683Z,36.04
2018-03-28T01:11:45.691Z,36.1
2018-03-28T01:12:45.698Z,36.05
2018-03-28T01:13:45.743Z,36.05
2018-03-28T01:14:45.684Z,36.15
2018-03-28T01:15:45.701Z,36.19
2018-03-28T01:16:45.687Z,36.08
2018-03-28T01:17:45.690Z,36.1
2018-03-28T01:18:45.967Z,36.1
2018-03-28T01:19:45.689Z,36.05
2018-03-28T01:20:45.681Z,36.09
2018-03-28T01:21:45.701Z,36.06
2018-03-28T01:22:45.694Z,36.1
2018-03-28T01:23:45.693Z,36.13
2018-03-28T01:24:45.778Z,36.2
2018-03-28T01:25:45.676Z,36.06
2018-03-28T01:26:45.670Z,36.24
2018-03-28T01:27:45.663Z,36.15
2018-03-28T01:28:45.715Z,36.04
2018-03-28T01:29:45.671Z,36.12
2018-03-28T01:30:45.699Z,36.14
2018-03-28T01:31:45.678Z,36.07
2018-03-28T01:32:45.689Z,36.18
2018-03-28T01:33:45.661Z,36.21
2018-03-28T01:34:45.675Z,36.14
2018-03-28T01:35:45.711Z,36.25
2018-03-28T01:36:45.676Z,36.1
2018-03-28T01:37:45.673Z,36.08
2018-03-28T01:38:45.678Z,36.13
2018-03-28T01:39:45.664Z,36.1
2018-03-28T01:40:45.691Z,36.04
2018-03-28T01:41:45.673Z,36.15
2018-03-28T01:42:45.648Z,36.2
2018-03-28T01:43:45.664Z,36.15
2018-03-28T01:44:45.704Z,36.25
2018-03-28T01:45:45.683Z,36.2
2018-03-28T01:46:45.668Z,36.08
2018-03-28T01:47:45.669Z,36.16
2018-03-28T01:48:45.664Z,36.19
2018-03-28T01:49:45.681Z,36.16
2018-03-28T01:50:45.696Z,36.19
2018-03-28T01:51:45.774Z,36.3
2018-03-28T01:52:45.767Z,36.12
2018-03-28T01:53:45.687Z,36.32
2018-03-28T01:54:45.652Z,36.33
2018-03-28T01:55:45.685Z,36.23
2018-03-28T01:56:45.679Z,36.3
2018-03-28T01:57:45.688Z,36.25
2018-03-28T01:58:45.672Z,36.14
2018-03-28T01:59:45.664Z,36.26
2018-03-28T02:00:45.660Z,36.27
2018-03-28T02:01:45.662Z,36.15
2018-03-28T02:02:45.695Z,36.31
2018-03-28T02:03:45.683Z,36.21
2018-03-28T02:04:45.661Z,36.19
2018-03-28T02:05:45.691Z,36.3
2018-03-28T02:06:45.687Z,36.47
2018-03-28T02:07:45.667Z,36.15
2018-03-28T02:08:45.657Z,36.27
2018-03-28T02:09:45.703Z,36.29
2018-03-28T02:10:45.709Z,36.17
2018-03-28T02:11:45.687Z,36.29
2018-03-28T02:12:45.695Z,36.3
2018-03-28T02:13:45.692Z,36.21
2018-03-28T02:14:45.658Z,36.24
2018-03-28T02:15:45.819Z,36.27
2018-03-28T02:16:45.663Z,36.18
2018-03-28T02:17:45.672Z,36.32
2018-03-28T02:18:45.704Z,36.31
2018-03-28T02:19:45.677Z,36.1
2018-03-28T02:20:45.656Z,36.27
2018-03-28T02:21:45.699Z,36.33
2018-03-28T02:22:45.669Z,36.26
2018-03-28T02:23:45.666Z,36.33
2018-03-28T02:24:45.709Z,36.31
2018-03-28T02:25:45.688Z,36.2
2018-03-28T02:26:45.653Z,36.28
2018-03-28T02:27:45.633Z,36.22
2018-03-28T02:28:45.654Z,36.18
2018-03-28T02:29:45.648Z,36.35
2018-03-28T02:30:45.681Z,36.3
2018-03-28T02:31:45.664Z,36.21
2018-03-28T02:32:45.696Z,36.31
2018-03-28T02:33:45.677Z,36.3
2018-03-28T02:34:45.657Z,36.26
2018-03-28T02:35:45.661Z,36.32
2018-03-28T02:36:45.639Z,36.35
2018-03-28T02:37:45.697Z,36.21
2018-03-28T02:38:45.678Z,36.31
2018-03-28T02:39:45.667Z,36.24
2018-03-28T02:40:45.668Z,36.1
2018-03-28T02:41:45.641Z,36.3
2018-03-28T02:42:45.660Z,36.31
2018-03-28T02:43:45.669Z,36.21
2018-03-28T02:44:45.666Z,36.27
2018-03-28T02:45:45.662Z,36.3
2018-03-28T02:46:45.731Z,36.22
2018-03-28T02:47:45.644Z,36.28
2018-03-28T02:48:45.652Z,36.3
2018-03-28T02:49:45.688Z,36.25
2018-03-28T02:50:45.693Z,36.36
2018-03-28T02:51:45.648Z,36.32
2018-03-28T02:52:45.652Z,36.23
2018-03-28T02:53:45.671Z,36.29
2018-03-28T02:54:45.653Z,36.26
2018-03-28T02:55:45.733Z,36.23
2018-03-28T02:56:45.657Z,36.35
2018-03-28T02:57:45.634Z,36.29
2018-03-28T02:58:45.641Z,36.21
2018-03-28T02:59:45.640Z,36.37
2018-03-28T03:00:45.647Z,36.31
2018-03-28T03:01:45.820Z,36.27
2018-03-28T03:02:45.652Z,36.26
2018-03-28T03:03:45.649Z,36.38
2018-03-28T03:04:45.705Z,36.23
2018-03-28T03:05:45.629Z,36.34
2018-03-28T03:06:45.688Z,36.36
2018-03-28T03:07:45.644Z,36.14
2018-03-28T03:08:45.652Z,36.29
2018-03-28T03:09:45.649Z,36.35
2018-03-28T03:10:45.642Z,36.19
2018-03-28T03:11:45.643Z,36.29
2018-03-28T03:12:45.649Z,36.26
2018-03-28T03:13:45.711Z,36.24
2018-03-28T03:14:45.645Z,36.35
2018-03-28T03:15:45.636Z,36.33
2018-03-28T03:16:45.676Z,36.19
2018-03-28T03:17:45.682Z,36.43
2018-03-28T03:18:45.639Z,36.35
2018-03-28T03:19:45.639Z,36.2
2018-03-28T03:20:45.656Z,36.34
2018-03-28T03:21:45.638Z,36.38
2018-03-28T03:22:45.657Z,36.2
2018-03-28T03:23:45.692Z,36.35
2018-03-28T03:24:45.653Z,36.38
2018-03-28T03:25:45.644Z,36.32
2018-03-28T03:26:45.641Z,36.35
2018-03-28T03:27:45.653Z,36.41
2018-03-28T03:28:45.639Z,36.3
2018-03-28T03:29:45.658Z,36.27
2018-03-28T03:30:45.634Z,36.29
2018-03-28T03:31:45.649Z,36.24
2018-03-28T03:32:45.656Z,36.3
2018-03-28T03:33:45.635Z,36.27
2018-03-28T03:34:45.673Z,36.25
2018-03-28T03:35:45.642Z,36.35
2018-03-28T03:36:45.637Z,36.36
2018-03-28T03:37:45.647Z,36.22
2018-03-28T03:38:45.632Z,36.33
2018-03-28T03:39:45.654Z,36.32
2018-03-28T03:40:45.634Z,36.22
2018-03-28T03:41:45.642Z,36.34
2018-03-28T03:42:45.623Z,36.39
2018-03-28T03:43:45.681Z,36.25
2018-03-28T03:44:45.626Z,36.33
2018-03-28T03:45:45.611Z,36.38
2018-03-28T03:46:45.624Z,36.28
2018-03-28T03:47:45.705Z,36.41
2018-03-28T03:48:45.631Z,36.41
2018-03-28T03:49:45.648Z,36.29
2018-03-28T03:50:45.690Z,36.41
2018-03-28T03:51:45.613Z,36.38
2018-03-28T03:52:45.780Z,36.36
2018-03-28T03:53:45.762Z,36.41
2018-03-28T03:54:45.630Z,36.38
2018-03-28T03:55:45.631Z,36.26
2018-03-28T03:56:45.624Z,36.38
2018-03-28T03:57:45.606Z,36.4
2018-03-28T03:58:45.766Z,36.19
2018-03-28T03:59:45.627Z,36.33
2018-03-28T04:00:45.618Z,36.35
2018-03-28T04:01:45.650Z,36.21
2018-03-28T04:02:45.621Z,36.29
2018-03-28T04:03:45.627Z,36.21
2018-03-28T04:04:45.627Z,36.13
2018-03-28T04:05:45.637Z,36.13
2018-03-28T04:06:45.624Z,36.14
2018-03-28T04:07:45.623Z,36.14
2018-03-28T04:08:45.626Z,36.13
2018-03-28T04:09:45.639Z,36.09
2018-03-28T04:10:45.610Z,36.04
2018-03-28T04:11:45.616Z,36.02
2018-03-28T04:12:45.606Z,36.05
2018-03-28T04:13:45.614Z,35.98
2018-03-28T04:14:45.620Z,36.06
2018-03-28T04:15:45.658Z,36.04
2018-03-28T04:16:45.616Z,35.94
2018-03-28T04:17:45.632Z,35.9
2018-03-28T04:18:45.687Z,36.02
2018-03-28T04:19:45.615Z,35.91
2018-03-28T04:20:45.636Z,35.94
2018-03-28T04:21:45.708Z,35.87
2018-03-28T04:22:45.630Z,35.87
2018-03-28T04:23:45.619Z,35.8
2018-03-28T04:24:45.650Z,35.98
2018-03-28T04:25:45.611Z,35.87
2018-03-28T04:26:45.870Z,35.86
2018-03-28T04:27:45.655Z,35.85
2018-03-28T04:28:45.659Z,35.79
2018-03-28T04:29:45.630Z,35.87
2018-03-28T04:30:45.632Z,35.85
2018-03-28T04:31:45.645Z,35.78
2018-03-28T04:32:45.623Z,35.74
2018-03-28T04:33:45.648Z,35.74
2018-03-28T04:34:45.633Z,35.8
2018-03-28T04:35:45.604Z,35.81
2018-03-28T04:36:45.646Z,35.77
2018-03-28T04:37:45.649Z,35.74
2018-03-28T04:38:45.617Z,35.78
2018-03-28T04:39:45.655Z,35.87
2018-03-28T04:40:45.660Z,35.83
2018-03-28T04:41:45.636Z,35.73
2018-03-28T04:42:45.672Z,35.9
2018-03-28T04:43:45.654Z,35.8
2018-03-28T04:44:45.617Z,35.89
2018-03-28T04:45:45.639Z,35.83
2018-03-28T04:46:45.618Z,35.69
2018-03-28T04:47:45.607Z,35.87
2018-03-28T04:48:45.604Z,35.77
2018-03-28T04:49:45.662Z,35.79
2018-03-28T04:50:45.775Z,35.78
2018-03-28T04:51:45.625Z,35.87
2018-03-28T04:52:45.639Z,35.81
2018-03-28T04:53:45.661Z,35.86
2018-03-28T04:54:45.604Z,35.93
2018-03-28T04:55:45.730Z,35.85
2018-03-28T04:56:45.609Z,35.8
2018-03-28T04:57:45.603Z,35.83
2018-03-28T04:58:45.626Z,35.74
2018-03-28T04:59:45.610Z,35.84
2018-03-28T05:00:45.635Z,35.84
2018-03-28T05:01:45.612Z,35.86
2018-03-28T05:02:45.610Z,35.83
2018-03-28T05:03:45.600Z,35.95
2018-03-28T05:04:45.603Z,35.8
2018-03-28T05:05:45.651Z,35.86
2018-03-28T05:06:45.611Z,35.79
2018-03-28T05:07:45.603Z,35.75
2018-03-28T05:08:45.649Z,35.79
2018-03-28T05:09:45.638Z,35.79
2018-03-28T05:10:45.597Z,35.78
2018-03-28T05:11:45.614Z,35.83
2018-03-28T05:12:45.618Z,35.75
2018-03-28T05:13:45.640Z,35.75
2018-03-28T05:14:45.614Z,35.82
2018-03-28T05:15:45.839Z,35.75
2018-03-28T05:16:45.600Z,35.76
2018-03-28T05:17:45.595Z,35.78
2018-03-28T05:18:45.608Z,35.74
2018-03-28T05:19:45.601Z,35.74
2018-03-28T05:20:45.649Z,35.78
2018-03-28T05:21:45.577Z,35.72
2018-03-28T05:22:45.746Z,35.74
2018-03-28T05:23:45.610Z,35.75
2018-03-28T05:24:45.604Z,35.73
2018-03-28T05:25:45.624Z,35.7
2018-03-28T05:26:45.596Z,35.68
2018-03-28T05:27:45.612Z,35.74
2018-03-28T05:28:45.608Z,35.69
2018-03-28T05:29:45.596Z,35.74
2018-03-28T05:30:45.660Z,35.78
2018-03-28T05:31:45.616Z,35.73
2018-03-28T05:32:45.596Z,35.72
2018-03-28T05:33:45.574Z,35.82
2018-03-28T05:34:45.609Z,35.7
2018-03-28T05:35:45.597Z,35.67
2018-03-28T05:36:45.606Z,35.76
2018-03-28T05:37:45.606Z,35.72
2018-03-28T05:38:45.597Z,35.78
2018-03-28T05:39:45.585Z,35.69
2018-03-28T05:40:45.858Z,35.72
2018-03-28T05:41:45.606Z,35.64
2018-03-28T05:42:45.693Z,35.7
2018-03-28T05:43:45.581Z,35.68
2018-03-28T05:44:45.592Z,35.74
2018-03-28T05:45:45.592Z,35.77
2018-03-28T05:46:45.600Z,35.66
2018-03-28T05:47:45.591Z,35.7
2018-03-28T05:48:45.611Z,35.81
2018-03-28T05:49:45.690Z,35.7
2018-03-28T05:50:45.579Z,35.65
2018-03-28T05:51:45.699Z,35.68
2018-03-28T05:52:45.592Z,35.66
2018-03-28T05:53:45.705Z,35.67
2018-03-28T05:54:45.726Z,35.62
2018-03-28T05:55:45.579Z,35.59
2018-03-28T05:56:45.628Z,35.63
2018-03-28T05:57:45.622Z,35.66
2018-03-28T05:58:45.585Z,35.6
2018-03-28T05:59:45.602Z,35.61
2018-03-28T06:00:45.636Z,35.72
2018-03-28T06:01:45.602Z,35.55
2018-03-28T06:02:45.584Z,35.59
2018-03-28T06:03:45.603Z,35.68
2018-03-28T06:04:45.592Z,35.54
2018-03-28T06:05:45.587Z,35.65
2018-03-28T06:06:45.621Z,35.69
2018-03-28T06:07:45.575Z,35.52
2018-03-28T06:08:45.596Z,35.64
2018-03-28T06:09:45.605Z,36.04
2018-03-28T06:10:45.586Z,36.1
2018-03-28T06:11:45.664Z,35.83
2018-03-28T06:12:45.624Z,35.84
2018-03-28T06:13:45.618Z,35.9
2018-03-28T06:14:45.575Z,35.83
2018-03-28T06:15:45.608Z,35.8
2018-03-28T06:16:45.625Z,35.86
2018-03-28T06:17:45.576Z,35.82
2018-03-28T06:18:45.595Z,35.87
2018-03-28T06:19:45.582Z,35.83
2018-03-28T06:20:45.571Z,35.79
2018-03-28T06:21:45.637Z,35.88
2018-03-28T06:22:45.645Z,35.78
2018-03-28T06:23:45.580Z,35.83
2018-03-28T06:24:45.609Z,35.79
2018-03-28T06:25:45.593Z,35.8
2018-03-28T06:26:45.608Z,35.75
2018-03-28T06:27:45.579Z,35.7
2018-03-28T06:28:45.578Z,35.74
2018-03-28T06:29:45.583Z,35.73
2018-03-28T06:30:45.595Z,35.72
2018-03-28T06:31:45.616Z,35.71
2018-03-28T06:32:45.579Z,35.71
2018-03-28T06:33:45.589Z,35.63
2018-03-28T06:34:45.599Z,35.69
2018-03-28T06:35:45.576Z,35.71
2018-03-28T06:36:45.603Z,35.65
2018-03-28T06:37:45.586Z,35.68
2018-03-28T06:38:45.566Z,35.63
2018-03-28T06:39:45.580Z,35.63
2018-03-28T06:40:45.567Z,35.62
2018-03-28T06:41:45.612Z,35.61
2018-03-28T06:42:45.563Z,35.63
2018-03-28T06:43:45.576Z,35.63
2018-03-28T06:44:45.578Z,35.65
2018-03-28T06:45:45.612Z,35.67
2018-03-28T06:46:45.750Z,35.66
2018-03-28T06:47:45.569Z,35.54
2018-03-28T06:48:45.614Z,35.68
2018-03-28T06:49:45.568Z,35.63
2018-03-28T06:50:45.573Z,35.55
2018-03-28T06:51:45.595Z,35.6
2018-03-28T06:52:45.567Z,35.57
2018-03-28T06:53:45.625Z,35.55
2018-03-28T06:54:45.580Z,35.54
2018-03-28T06:55:45.567Z,35.57
2018-03-28T06:56:45.605Z,35.58
2018-03-28T06:57:45.599Z,35.52
2018-03-28T06:58:45.570Z,35.58
2018-03-28T06:59:45.648Z,35.52
2018-03-28T07:00:45.557Z,35.65
2018-03-28T07:01:45.565Z,35.57
2018-03-28T07:02:45.556Z,35.54
2018-03-28T07:03:45.584Z,35.57
2018-03-28T07:04:45.577Z,35.57
2018-03-28T07:05:45.580Z,35.51
2018-03-28T07:06:45.562Z,35.48
2018-03-28T07:07:45.571Z,35.67
2018-03-28T07:08:45.584Z,35.68
2018-03-28T07:09:45.554Z,35.71
2018-03-28T07:10:45.580Z,36.08
2018-03-28T07:11:45.563Z,35.99
2018-03-28T07:12:45.609Z,35.67
2018-03-28T07:13:45.561Z,35.7
2018-03-28T07:14:45.609Z,35.72
2018-03-28T07:15:45.624Z,35.76
2018-03-28T07:16:45.567Z,35.73
2018-03-28T07:17:45.556Z,35.61
2018-03-28T07:18:45.562Z,35.58
2018-03-28T07:19:45.688Z,35.64
2018-03-28T07:20:45.753Z,35.75
2018-03-28T07:21:45.559Z,35.77
2018-03-28T07:22:45.552Z,35.9
2018-03-28T07:23:45.557Z,35.76
2018-03-28T07:24:45.677Z,35.69
2018-03-28T07:25:45.561Z,35.66
2018-03-28T07:26:45.557Z,35.69
2018-03-28T07:27:45.653Z,35.81
2018-03-28T07:28:45.554Z,35.82
2018-03-28T07:29:45.585Z,35.71
2018-03-28T07:30:45.556Z,35.86
2018-03-28T07:31:45.574Z,36.01
2018-03-28T07:32:45.619Z,35.91
2018-03-28T07:33:45.552Z,35.92
2018-03-28T07:34:45.544Z,36.02
2018-03-28T07:35:45.554Z,35.99
2018-03-28T07:36:45.556Z,36.07
2018-03-28T07:37:45.563Z,36.11
2018-03-28T07:38:45.548Z,36.15
2018-03-28T07:39:45.840Z,36.21
2018-03-28T07:40:45.550Z,36.14
2018-03-28T07:41:45.563Z,36.09
2018-03-28T07:42:45.564Z,35.8
2018-03-28T07:43:45.556Z,35.78
2018-03-28T07:44:45.581Z,35.63
2018-03-28T07:45:45.567Z,35.55
2018-03-28T07:46:45.550Z,35.51
2018-03-28T07:47:45.551Z,35.62
2018-03-28T07:48:45.549Z,36.03
2018-03-28T07:49:45.569Z,36.18
2018-03-28T07:50:45.558Z,36.28
2018-03-28T07:51:45.586Z,36.73
2018-03-28T07:52:45.555Z,36.64
2018-03-28T07:53:45.573Z,36.7
2018-03-28T07:54:45.716Z,36.89
2018-03-28T07:55:45.752Z,36.67
2018-03-28T07:56:45.541Z,36.74
2018-03-28T07:57:45.595Z,37.04
2018-03-28T07:58:45.575Z,37
2018-03-28T07:59:45.597Z,36.9
2018-03-28T08:00:45.541Z,36.88
2018-03-28T08:01:45.550Z,36.94
2018-03-28T08:02:45.558Z,37.13
2018-03-28T08:03:45.550Z,36.41
2018-03-28T08:04:45.584Z,36.12
2018-03-28T08:05:45.563Z,36.58
2018-03-28T08:06:45.543Z,36.69
2018-03-28T08:07:45.543Z,36.1
2018-03-28T08:08:45.550Z,36.07
2018-03-28T08:09:45.578Z,36.08
2018-03-28T08:10:45.566Z,36.02
2018-03-28T08:11:45.565Z,36.03
2018-03-28T08:12:45.565Z,35.79
2018-03-28T08:13:45.547Z,35.71
2018-03-28T08:14:45.562Z,35.69
2018-03-28T08:15:45.573Z,36.01
2018-03-28T08:16:45.558Z,36.5
2018-03-28T08:17:45.550Z,36.42
2018-03-28T08:18:45.536Z,36.62
2018-03-28T08:19:45.599Z,36.39
2018-03-28T08:20:45.533Z,36.36
2018-03-28T08:21:45.549Z,36.49
2018-03-28T08:22:45.550Z,36.23
2018-03-28T08:23:45.553Z,36.44
2018-03-28T08:24:45.546Z,36.57
2018-03-28T08:25:45.696Z,36.26
2018-03-28T08:26:45.581Z,36.79
2018-03-28T08:27:45.554Z,36.66
2018-03-28T08:28:45.543Z,36.42
2018-03-28T08:29:45.544Z,36.78
2018-03-28T08:30:45.564Z,36.36
2018-03-28T08:31:45.545Z,36.05
2018-03-28T08:32:45.543Z,36.54
2018-03-28T08:33:45.533Z,36.68
2018-03-28T08:34:45.545Z,36.42
2018-03-28T08:35:45.568Z,36.85
2018-03-28T08:36:45.546Z,36.76
2018-03-28T08:37:45.540Z,36.55
2018-03-28T08:38:45.538Z,37.35
2018-03-28T08:39:45.566Z,36.87
2018-03-28T08:40:45.575Z,36.46
2018-03-28T08:41:45.538Z,36.74
2018-03-28T08:42:45.536Z,36.66
2018-03-28T08:43:45.531Z,36.18
2018-03-28T08:44:45.532Z,36.06
2018-03-28T08:45:45.555Z,36.2
2018-03-28T08:46:45.535Z,35.83
2018-03-28T08:47:45.545Z,35.8
2018-03-28T08:48:45.536Z,35.87
2018-03-28T08:49:46.334Z,35.72
2018-03-28T08:50:45.567Z,36.31
2018-03-28T08:51:45.545Z,36.63
2018-03-28T08:52:45.546Z,36.48
2018-03-28T08:53:45.591Z,36.64
2018-03-28T08:54:45.560Z,36.67
2018-03-28T08:55:45.548Z,36.56
2018-03-28T08:56:45.724Z,36.64
2018-03-28T08:57:45.529Z,36.53
2018-03-28T08:58:45.551Z,36.18
2018-03-28T08:59:45.556Z,36.01
2018-03-28T09:00:45.633Z,35.43
2018-03-28T09:01:45.573Z,35.03
2018-03-28T09:02:45.602Z,36.35
2018-03-28T09:03:45.543Z,36.34
2018-03-28T09:04:45.638Z,36.22
2018-03-28T09:05:45.540Z,36.74
2018-03-28T09:06:45.590Z,36.41
2018-03-28T09:07:45.541Z,36.06
2018-03-28T09:08:45.535Z,36.3
2018-03-28T09:09:45.569Z,36
2018-03-28T09:10:45.566Z,35.74
2018-03-28T09:11:45.694Z,35.85
2018-03-28T09:12:45.537Z,36.01
2018-03-28T09:13:45.549Z,36.11
2018-03-28T09:14:45.534Z,36.67
2018-03-28T09:15:45.543Z,36.59
2018-03-28T09:16:45.566Z,36.25
2018-03-28T09:17:45.527Z,36.2
2018-03-28T09:18:45.534Z,36.1
2018-03-28T09:19:45.528Z,36.16
2018-03-28T09:20:46.133Z,36.19
2018-03-28T09:21:45.532Z,36.22
2018-03-28T09:22:45.545Z,35.59
2018-03-28T09:23:45.548Z,35.62
2018-03-28T09:24:45.520Z,35.47
2018-03-28T09:25:45.531Z,35.52
2018-03-28T09:26:45.546Z,35.63
2018-03-28T09:27:45.591Z,35.43
2018-03-28T09:28:45.545Z,35.59
2018-03-28T09:29:45.532Z,35.85
2018-03-28T09:30:45.520Z,36.2
2018-03-28T09:31:45.617Z,35.89
2018-03-28T09:32:45.658Z,35.91
2018-03-28T09:33:45.517Z,35.97
2018-03-28T09:34:45.509Z,35.7
2018-03-28T09:35:45.534Z,35.75
2018-03-28T09:36:45.686Z,36.18
2018-03-28T09:37:45.529Z,35.91
2018-03-28T09:38:45.525Z,35.93
2018-03-28T09:39:45.510Z,36.04
2018-03-28T09:40:45.641Z,35.67
2018-03-28T09:41:45.585Z,36.19
2018-03-28T09:42:45.740Z,36.09
2018-03-28T09:43:45.516Z,35.6
2018-03-28T09:44:45.528Z,35.53
2018-03-28T09:45:45.517Z,35.65
2018-03-28T09:46:45.553Z,35.4
2018-03-28T09:47:45.554Z,35.63
2018-03-28T09:48:45.511Z,35.34
2018-03-28T09:49:45.523Z,35.3
2018-03-28T09:50:45.517Z,35.28
2018-03-28T09:51:45.565Z,35.59
2018-03-28T09:52:45.518Z,36.04
2018-03-28T09:53:45.529Z,35.47
2018-03-28T09:54:45.559Z,35.97
2018-03-28T09:55:45.611Z,35.56
2018-03-28T09:56:45.658Z,35.64
2018-03-28T09:57:45.546Z,35.81
2018-03-28T09:58:45.587Z,35.41
2018-03-28T09:59:45.509Z,35.75
2018-03-28T10:00:45.551Z,35.72
2018-03-28T10:01:45.549Z,35.21
2018-03-28T10:02:45.509Z,35.72
2018-03-28T10:03:45.532Z,35.82
2018-03-28T10:04:45.511Z,35.41
2018-03-28T10:05:45.566Z,35.76
2018-03-28T10:06:45.561Z,35.8
2018-03-28T10:07:45.541Z,35.37
2018-03-28T10:08:45.513Z,35.37
2018-03-28T10:09:45.589Z,35.6
2018-03-28T10:10:45.543Z,35.31
2018-03-28T10:11:45.559Z,35.55
2018-03-28T10:12:45.530Z,35.55
2018-03-28T10:13:45.523Z,35.33
2018-03-28T10:14:45.534Z,35.52
2018-03-28T10:15:45.625Z,35.57
2018-03-28T10:16:45.528Z,35.3
2018-03-28T10:17:45.507Z,35.55
2018-03-28T10:18:45.551Z,35.41
2018-03-28T10:19:45.576Z,35.22
2018-03-28T10:20:45.510Z,35.38
2018-03-28T10:21:45.541Z,35.42
2018-03-28T10:22:45.516Z,35.35
2018-03-28T10:23:45.531Z,35.46
2018-03-28T10:24:45.566Z,35.66
2018-03-28T10:25:45.517Z,35.47
2018-03-28T10:26:45.524Z,35.63
2018-03-28T10:27:45.503Z,35.66
2018-03-28T10:28:45.724Z,35.51
2018-03-28T10:29:45.548Z,35.62
2018-03-28T10:30:45.518Z,35.52
2018-03-28T10:31:45.520Z,35.44
2018-03-28T10:32:45.537Z,35.56
2018-03-28T10:33:45.570Z,35.55
2018-03-28T10:34:45.521Z,35.46
2018-03-28T10:35:45.516Z,35.55
2018-03-28T10:36:45.557Z,35.52
2018-03-28T10:37:45.521Z,35.47
2018-03-28T10:38:45.534Z,35.52
2018-03-28T10:39:45.553Z,35.53
2018-03-28T10:40:45.529Z,35.46
2018-03-28T10:41:45.579Z,35.55
2018-03-28T10:42:45.523Z,35.55
2018-03-28T10:43:45.539Z,35.45
2018-03-28T10:44:45.511Z,35.53
2018-03-28T10:45:45.551Z,35.15
2018-03-28T10:46:45.485Z,34.51
2018-03-28T10:47:45.498Z,35.1
2018-03-28T10:48:45.722Z,35.29
2018-03-28T10:49:45.498Z,35.1
2018-03-28T10:50:45.511Z,35.33
2018-03-28T10:51:45.536Z,35.4
2018-03-28T10:52:45.518Z,35.3
2018-03-28T10:53:45.552Z,35.22
2018-03-28T10:54:45.548Z,35.15
2018-03-28T10:55:45.498Z,35.19
2018-03-28T10:56:45.494Z,35.33
2018-03-28T10:57:45.531Z,35.33
2018-03-28T10:58:45.516Z,35.24
2018-03-28T10:59:45.598Z,35.28
2018-03-28T11:00:45.490Z,35.31
2018-03-28T11:01:45.532Z,35.28
2018-03-28T11:02:45.544Z,35.33
2018-03-28T11:03:45.582Z,35.32
2018-03-28T11:04:45.827Z,35.15
2018-03-28T11:05:45.493Z,35.4
2018-03-28T11:06:45.474Z,35.56
2018-03-28T11:07:45.548Z,35.46
2018-03-28T11:08:45.542Z,36.05
2018-03-28T11:09:45.520Z,35.76
2018-03-28T11:10:45.521Z,36.3
2018-03-28T11:11:45.485Z,36.54
2018-03-28T11:12:45.513Z,37.22
2018-03-28T11:13:45.491Z,35.86
2018-03-28T11:14:45.520Z,35.52
2018-03-28T11:15:45.493Z,35.61
2018-03-28T11:16:45.499Z,35.61
2018-03-28T11:17:45.486Z,35.65
2018-03-28T11:18:45.486Z,35.55
2018-03-28T11:19:45.581Z,35.32
2018-03-28T11:20:45.677Z,35.41
2018-03-28T11:21:45.497Z,35.31
2018-03-28T11:22:45.493Z,35.3
2018-03-28T11:23:45.524Z,35.36
2018-03-28T11:24:45.499Z,35.49
2018-03-28T11:25:45.519Z,35.22
2018-03-28T11:26:45.492Z,35.3
2018-03-28T11:27:45.529Z,35.29
2018-03-28T11:28:45.508Z,35.19
2018-03-28T11:29:45.721Z,35.32
2018-03-28T11:30:45.673Z,35.27
2018-03-28T11:31:45.564Z,35.24
2018-03-28T11:32:45.527Z,35.21
2018-03-28T11:33:45.547Z,35.21
2018-03-28T11:34:45.534Z,35.17
2018-03-28T11:35:45.488Z,35.26
2018-03-28T11:36:45.520Z,35.33
2018-03-28T11:37:45.491Z,35.18
2018-03-28T11:38:45.526Z,35.17
2018-03-28T11:39:45.457Z,35.25
2018-03-28T11:40:45.519Z,35.17
2018-03-28T11:41:45.537Z,35.18
2018-03-28T11:42:45.461Z,35.16
2018-03-28T11:43:45.501Z,35.29
2018-03-28T11:44:45.473Z,35.42
2018-03-28T11:45:45.488Z,35.45
2018-03-28T11:46:45.521Z,35.46
2018-03-28T11:47:45.494Z,35.42
2018-03-28T11:48:45.507Z,35.4
2018-03-28T11:49:45.498Z,35.43
2018-03-28T11:50:45.509Z,35.44
2018-03-28T11:51:45.483Z,35.43
2018-03-28T11:52:45.477Z,35.43
2018-03-28T11:53:45.470Z,35.45
2018-03-28T11:54:45.498Z,35.44
2018-03-28T11:55:45.478Z,35.42
2018-03-28T11:56:45.584Z,35.4
2018-03-28T11:57:45.555Z,35.43
2018-03-28T11:58:45.486Z,35.61
2018-03-28T11:59:45.503Z,35.53
2018-03-28T12:00:45.471Z,35.79
2018-03-28T12:01:45.498Z,35.83
2018-03-28T12:02:45.504Z,35.93
2018-03-28T12:03:45.468Z,36
2018-03-28T12:04:45.778Z,36
2018-03-28T12:05:45.480Z,36.08
2018-03-28T12:06:45.489Z,36.09
2018-03-28T12:07:45.479Z,35.85
2018-03-28T12:08:45.475Z,36.31
2018-03-28T12:09:45.500Z,35.81
2018-03-28T12:10:45.480Z,35.29
2018-03-28T12:11:45.504Z,35.76
2018-03-28T12:12:45.460Z,35.44
2018-03-28T12:13:45.488Z,35.39
2018-03-28T12:14:45.667Z,35.54
2018-03-28T12:15:45.468Z,36.1
2018-03-28T12:16:45.483Z,34.85
2018-03-28T12:17:45.478Z,34.98
2018-03-28T12:18:45.500Z,35.37
2018-03-28T12:19:45.538Z,35.21
2018-03-28T12:20:45.487Z,35.34
2018-03-28T12:21:45.484Z,36.07
2018-03-28T12:22:45.499Z,35.47
2018-03-28T12:23:45.494Z,35.61
2018-03-28T12:24:45.497Z,35.85
2018-03-28T12:25:45.481Z,35.84
2018-03-28T12:26:45.491Z,36.04
2018-03-28T12:27:45.512Z,36.15
2018-03-28T12:28:45.483Z,35.69
2018-03-28T12:29:45.702Z,36.15
2018-03-28T12:30:45.473Z,36.28
2018-03-28T12:31:45.522Z,35.85
2018-03-28T12:32:45.465Z,36.28
2018-03-28T12:33:45.473Z,36.24
2018-03-28T12:34:45.499Z,36.13
2018-03-28T12:35:45.469Z,36.73
2018-03-28T12:36:45.686Z,36.23
2018-03-28T12:37:45.459Z,36.07
2018-03-28T12:38:45.477Z,37.08
2018-03-28T12:39:45.631Z,36.95
2018-03-28T12:40:45.464Z,36.39
2018-03-28T12:41:45.546Z,36.74
2018-03-28T12:42:45.481Z,36.74
2018-03-28T12:43:45.476Z,35.79
2018-03-28T12:44:45.503Z,35.96
2018-03-28T12:45:45.480Z,35.95
2018-03-28T12:46:45.465Z,35.38
2018-03-28T12:47:45.464Z,35.51
2018-03-28T12:48:45.484Z,35.84
2018-03-28T12:49:45.673Z,35.33
2018-03-28T12:50:45.462Z,35.51
2018-03-28T12:51:45.541Z,35.6
2018-03-28T12:52:45.457Z,35.27
2018-03-28T12:53:45.523Z,35.73
2018-03-28T12:54:45.499Z,35.75
2018-03-28T12:55:45.457Z,35.27
2018-03-28T12:56:45.476Z,35.69